Time;durP1;ratioP1;P1;durP2;ratioP2;P2;SDS_P1;SDS_P2;PMS_P1;PMS_P2;Temp;Humidity;BMP_temperature;BMP_pressure;BME280_temperature;BME280_humidity;BME280_pressure;Samples;Min_cycle;Max_cycle;Signal;HPM_P1;HPM_P2
2023/09/15 00:00:58;;;;;;;2.27;1.13;;;;;;;;;;5090909;28;20419;-77
2023/09/15 00:03:24;;;;;;;2.23;0.87;;;;;;;;;;5089613;28;20480;-82
2023/09/15 00:05:50;;;;;;;2.90;0.80;;;;;;;;;;5092677;28;20422;-82
2023/09/15 00:08:16;;;;;;;2.30;1.20;;;;;;;;;;5092624;28;20465;-76
2023/09/15 00:10:44;;;;;;;1.87;0.63;;;;;;;;;;5096557;28;20962;-82
2023/09/15 00:13:10;;;;;;;2.00;0.73;;;;;;;;;;5095327;28;20422;-79
2023/09/15 00:15:36;;;;;;;1.30;0.30;;;;;;;;;;5099064;28;20414;-76
2023/09/15 00:18:02;;;;;;;2.40;1.07;;;;;;;;;;5098042;28;20403;-77
2023/09/15 00:20:28;;;;;;;1.97;0.87;;;;;;;;;;5096943;28;20410;-82
2023/09/15 00:22:55;;;;;;;1.83;0.63;;;;;;;;;;5099296;28;20415;-78
2023/09/15 00:25:23;;;;;;;2.03;0.50;;;;;;;;;;5099341;28;20425;-83
2023/09/15 00:27:51;;;;;;;1.87;0.50;;;;;;;;;;5099336;28;20793;-76
2023/09/15 00:30:18;;;;;;;1.30;0.80;;;;;;;;;;5099740;28;20913;-75
2023/09/15 00:32:45;;;;;;;1.97;1.03;;;;;;;;;;5099398;28;20408;-82
2023/09/15 00:35:11;;;;;;;4.47;0.73;;;;;;;;;;5099728;28;20413;-76
2023/09/15 00:37:37;;;;;;;2.37;1.07;;;;;;;;;;5099735;28;20487;-78
2023/09/15 00:40:07;;;;;;;4.80;0.87;;;;;;;;;;5099750;28;20491;-77
2023/09/15 00:42:33;;;;;;;3.57;0.80;;;;;;;;;;5099740;28;20408;-81
2023/09/15 00:45:04;;;;;;;1.67;0.70;;;;;;;;;;5098286;28;20409;-82
2023/09/15 00:47:31;;;;;;;5.47;1.77;;;;;;;;;;5097328;28;20570;-76
2023/09/15 00:49:57;;;;;;;3.30;0.80;;;;;;;;;;5090206;28;20818;-78
2023/09/15 00:52:22;;;;;;;2.10;0.53;;;;;;;;;;5098736;28;20430;-83
2023/09/15 00:54:48;;;;;;;3.37;1.27;;;;;;;;;;5106024;28;20487;-81
2023/09/15 00:57:17;;;;;;;1.47;0.70;;;;;;;;;;5079231;28;20676;-77
2023/09/15 00:59:43;;;;;;;2.83;0.93;;;;;;;;;;5079277;28;20420;-83
2023/09/15 01:02:09;;;;;;;2.70;0.50;;;;;;;;;;5078827;28;20454;-83
2023/09/15 01:04:35;;;;;;;2.60;1.50;;;;;;;;;;5079321;28;20863;-77
2023/09/15 01:07:05;;;;;;;3.70;1.57;;;;;;;;;;5079126;28;20413;-83
2023/09/15 01:09:31;;;;;;;4.60;1.30;;;;;;;;;;5079257;28;20457;-75
2023/09/15 01:11:57;;;;;;;2.90;0.90;;;;;;;;;;5079211;28;20409;-75
2023/09/15 01:14:23;;;;;;;3.00;1.13;;;;;;;;;;5079099;28;20422;-76
2023/09/15 01:16:59;;;;;;;6.13;1.53;;;;;;;;;;5078885;28;20402;-75
2023/09/15 01:19:38;;;;;;;2.60;1.70;;;;;;;;;;5079310;28;20417;-76
2023/09/15 01:22:08;;;;;;;4.37;1.63;;;;;;;;;;5076234;28;20539;-82
2023/09/15 01:24:52;;;;;;;1.50;1.27;;;;;;;;;;5075969;28;20410;-84
2023/09/15 01:27:37;;;;;;;2.23;0.97;;;;;;;;;;5075866;28;20464;-84
2023/09/15 01:30:04;;;;;;;2.43;1.10;;;;;;;;;;5091396;28;20910;-75
2023/09/15 01:32:33;;;;;;;3.23;2.30;;;;;;;;;;5075352;28;20504;-75
2023/09/15 01:35:02;;;;;;;2.97;1.30;;;;;;;;;;5075834;28;20440;-86
2023/09/15 01:37:28;;;;;;;3.63;1.40;;;;;;;;;;5075607;28;20929;-86
2023/09/15 01:39:54;;;;;;;3.70;1.47;;;;;;;;;;5075955;28;20402;-83
2023/09/15 01:42:20;;;;;;;3.20;1.57;;;;;;;;;;5075493;28;20504;-84
2023/09/15 01:44:46;;;;;;;5.77;2.43;;;;;;;;;;5075387;28;20547;-84
2023/09/15 01:47:14;;;;;;;3.10;1.10;;;;;;;;;;5074938;28;20463;-75
2023/09/15 01:49:40;;;;;;;3.87;2.50;;;;;;;;;;5075273;28;20521;-81
2023/09/15 01:52:07;;;;;;;3.90;2.00;;;;;;;;;;5075426;28;20552;-81
2023/09/15 01:54:34;;;;;;;3.97;1.63;;;;;;;;;;5090991;28;20448;-83
2023/09/15 01:57:00;;;;;;;4.50;2.23;;;;;;;;;;5090897;28;20405;-83
2023/09/15 01:59:27;;;;;;;4.93;2.80;;;;;;;;;;5075372;28;20486;-79
2023/09/15 02:01:53;;;;;;;4.17;2.57;;;;;;;;;;5074684;28;20460;-83
2023/09/15 02:04:19;;;;;;;6.10;2.57;;;;;;;;;;5075176;28;20513;-79
2023/09/15 02:06:45;;;;;;;3.70;2.73;;;;;;;;;;5075130;28;20410;-76
2023/09/15 02:09:14;;;;;;;4.20;1.97;;;;;;;;;;5075154;28;20534;-85
2023/09/15 02:11:40;;;;;;;5.23;2.30;;;;;;;;;;5074986;28;20441;-75
2023/09/15 02:14:06;;;;;;;4.00;2.83;;;;;;;;;;5074932;28;20418;-85
2023/09/15 02:16:32;;;;;;;4.20;2.87;;;;;;;;;;5074557;28;20447;-84
2023/09/15 02:18:59;;;;;;;7.33;3.00;;;;;;;;;;5075021;28;20780;-76
2023/09/15 02:21:25;;;;;;;3.93;2.27;;;;;;;;;;5090335;28;20421;-86
2023/09/15 02:23:51;;;;;;;2.97;2.63;;;;;;;;;;5074605;28;20959;-86
2023/09/15 02:26:17;;;;;;;3.87;1.93;;;;;;;;;;5074473;28;20917;-76
2023/09/15 02:28:43;;;;;;;2.67;1.47;;;;;;;;;;5074413;28;20469;-75
2023/09/15 02:31:09;;;;;;;3.20;1.60;;;;;;;;;;5074171;28;20412;-78
2023/09/15 02:33:35;;;;;;;3.33;1.43;;;;;;;;;;5073152;28;20450;-85
2023/09/15 02:36:01;;;;;;;4.00;1.50;;;;;;;;;;5090003;28;20773;-82
2023/09/15 02:38:27;;;;;;;2.90;1.30;;;;;;;;;;5074358;28;20768;-85
2023/09/15 02:40:53;;;;;;;2.57;1.20;;;;;;;;;;5074337;28;20413;-85
2023/09/15 02:43:19;;;;;;;2.23;0.80;;;;;;;;;;5074151;28;20410;-85
2023/09/15 02:45:45;;;;;;;2.20;1.33;;;;;;;;;;5073790;28;20941;-83
2023/09/15 02:48:12;;;;;;;4.07;1.20;;;;;;;;;;5074014;28;20867;-83
2023/09/15 02:50:41;;;;;;;2.80;1.10;;;;;;;;;;5074070;28;20171;-82
2023/09/15 02:53:07;;;;;;;3.33;1.73;;;;;;;;;;5073968;28;20410;-83
2023/09/15 02:55:33;;;;;;;1.70;0.67;;;;;;;;;;5073907;28;20554;-82
2023/09/15 02:57:58;;;;;;;2.50;0.80;;;;;;;;;;5073882;28;20400;-75
2023/09/15 03:00:24;;;;;;;1.70;0.50;;;;;;;;;;5073868;28;20577;-81
2023/09/15 03:02:50;;;;;;;2.10;1.07;;;;;;;;;;5073190;28;20226;-82
2023/09/15 03:05:16;;;;;;;2.20;0.87;;;;;;;;;;5089352;28;20954;-82
2023/09/15 03:07:42;;;;;;;2.13;1.00;;;;;;;;;;5073658;28;20468;-82
2023/09/15 03:10:09;;;;;;;1.60;0.60;;;;;;;;;;5073695;28;20921;-83
2023/09/15 03:12:35;;;;;;;1.37;0.80;;;;;;;;;;5073602;28;20416;-77
2023/09/15 03:15:06;;;;;;;2.60;0.63;;;;;;;;;;5073622;28;20968;-75
2023/09/15 03:17:32;;;;;;;2.57;0.70;;;;;;;;;;5088887;28;20452;-75
2023/09/15 03:19:58;;;;;;;3.43;1.27;;;;;;;;;;5073607;28;20413;-75
2023/09/15 03:22:24;;;;;;;1.40;0.20;;;;;;;;;;5073480;28;20504;-81
2023/09/15 03:24:50;;;;;;;1.90;0.63;;;;;;;;;;5073476;28;20831;-82
2023/09/15 03:27:16;;;;;;;2.50;0.50;;;;;;;;;;5073270;28;20455;-82
2023/09/15 03:29:42;;;;;;;1.73;0.70;;;;;;;;;;5073349;28;20512;-83
2023/09/15 03:32:08;;;;;;;2.40;0.77;;;;;;;;;;5072998;28;20764;-83
2023/09/15 03:34:38;;;;;;;2.03;0.73;;;;;;;;;;5088895;28;20460;-83
2023/09/15 03:37:04;;;;;;;2.07;0.90;;;;;;;;;;5073260;28;20478;-82
2023/09/15 03:39:29;;;;;;;2.10;0.67;;;;;;;;;;5073225;28;20573;-81
2023/09/15 03:41:55;;;;;;;1.47;0.40;;;;;;;;;;5073212;28;21003;-74
2023/09/15 03:44:22;;;;;;;3.13;0.63;;;;;;;;;;5072832;28;20462;-82
2023/09/15 03:46:48;;;;;;;2.40;0.60;;;;;;;;;;5072813;28;20416;-83
2023/09/15 03:49:14;;;;;;;2.87;0.77;;;;;;;;;;5072976;28;20469;-82
2023/09/15 03:51:40;;;;;;;3.00;0.63;;;;;;;;;;5073090;28;20409;-82
2023/09/15 03:54:06;;;;;;;1.47;0.60;;;;;;;;;;5073026;28;20420;-81
2023/09/15 03:56:32;;;;;;;2.80;1.00;;;;;;;;;;5073080;28;20404;-84
2023/09/15 03:58:58;;;;;;;1.53;0.37;;;;;;;;;;5073012;28;20449;-82
2023/09/15 04:01:25;;;;;;;2.13;0.70;;;;;;;;;;5072473;28;20929;-84
2023/09/15 04:03:51;;;;;;;2.60;1.23;;;;;;;;;;5073031;28;20410;-84
2023/09/15 04:06:17;;;;;;;2.33;0.90;;;;;;;;;;5072961;28;20827;-82
2023/09/15 04:08:43;;;;;;;1.93;1.07;;;;;;;;;;5072826;28;20832;-84
2023/09/15 04:11:09;;;;;;;2.30;0.80;;;;;;;;;;5072918;28;20404;-84
2023/09/15 04:13:36;;;;;;;2.90;1.40;;;;;;;;;;5071589;28;20897;-75
2023/09/15 04:16:03;;;;;;;2.50;0.50;;;;;;;;;;5071254;28;20774;-84
2023/09/15 04:18:29;;;;;;;4.17;1.40;;;;;;;;;;5077829;28;20771;-83
2023/09/15 04:20:55;;;;;;;3.73;1.37;;;;;;;;;;5093075;28;20412;-83
2023/09/15 04:23:21;;;;;;;2.60;1.37;;;;;;;;;;5092943;28;20420;-84
2023/09/15 04:25:48;;;;;;;3.07;1.00;;;;;;;;;;5092954;28;20805;-84
2023/09/15 04:28:14;;;;;;;2.27;0.87;;;;;;;;;;5092853;28;20468;-84
2023/09/15 04:30:40;;;;;;;1.63;1.00;;;;;;;;;;5092580;28;20410;-84
2023/09/15 04:33:06;;;;;;;2.10;1.80;;;;;;;;;;5091620;28;20916;-82
2023/09/15 04:35:32;;;;;;;1.87;1.67;;;;;;;;;;5092831;28;20908;-84
2023/09/15 04:37:58;;;;;;;3.20;2.07;;;;;;;;;;5092756;28;20423;-82
2023/09/15 04:40:24;;;;;;;3.90;1.80;;;;;;;;;;5091499;28;20462;-82
2023/09/15 04:42:50;;;;;;;3.13;1.03;;;;;;;;;;5092726;28;20415;-83
2023/09/15 04:45:16;;;;;;;2.30;1.23;;;;;;;;;;5092788;28;20422;-83
2023/09/15 04:47:42;;;;;;;2.37;0.60;;;;;;;;;;5092526;28;20465;-83
2023/09/15 04:50:08;;;;;;;1.90;1.30;;;;;;;;;;5092730;28;20857;-78
2023/09/15 04:52:34;;;;;;;3.00;1.27;;;;;;;;;;5091417;28;20423;-83
2023/09/15 04:55:00;;;;;;;2.40;0.80;;;;;;;;;;5092716;28;20474;-83
2023/09/15 04:57:26;;;;;;;2.87;0.83;;;;;;;;;;5095100;28;20405;-83
2023/09/15 04:59:53;;;;;;;2.43;1.30;;;;;;;;;;5091745;28;20850;-84
2023/09/15 05:02:22;;;;;;;4.37;0.93;;;;;;;;;;5109701;28;20520;-81
2023/09/15 05:04:48;;;;;;;3.03;0.87;;;;;;;;;;5084300;28;20781;-82
2023/09/15 05:07:15;;;;;;;2.13;1.20;;;;;;;;;;5094066;28;20426;-81
2023/09/15 05:09:41;;;;;;;3.63;1.30;;;;;;;;;;5096153;28;20518;-81
2023/09/15 05:12:07;;;;;;;1.83;0.83;;;;;;;;;;5095621;28;20977;-76
2023/09/15 05:14:32;;;;;;;2.37;1.43;;;;;;;;;;5088628;28;20216;-76
2023/09/15 05:16:58;;;;;;;3.30;1.50;;;;;;;;;;5094956;28;20416;-81
2023/09/15 05:19:24;;;;;;;1.93;0.70;;;;;;;;;;5095237;28;20409;-75
2023/09/15 05:21:50;;;;;;;1.93;0.93;;;;;;;;;;5090984;28;20505;-75
2023/09/15 05:24:16;;;;;;;2.20;0.70;;;;;;;;;;5092260;28;20458;-81
2023/09/15 05:26:42;;;;;;;3.80;1.10;;;;;;;;;;5092246;28;20431;-76
2023/09/15 05:29:08;;;;;;;5.33;1.90;;;;;;;;;;5094669;28;20587;-77
2023/09/15 05:31:34;;;;;;;3.83;2.20;;;;;;;;;;5091751;28;20426;-80
2023/09/15 05:34:00;;;;;;;5.23;1.07;;;;;;;;;;5095061;28;20426;-82
2023/09/15 05:36:26;;;;;;;3.20;1.60;;;;;;;;;;5092951;28;20420;-82
2023/09/15 05:38:52;;;;;;;3.07;1.33;;;;;;;;;;5093907;28;20421;-82
2023/09/15 05:41:18;;;;;;;2.60;1.30;;;;;;;;;;5095785;28;20410;-84
2023/09/15 05:43:44;;;;;;;3.13;1.73;;;;;;;;;;5095666;28;20435;-83
2023/09/15 05:46:11;;;;;;;4.03;1.87;;;;;;;;;;5095287;28;20889;-84
2023/09/15 05:48:36;;;;;;;2.37;1.63;;;;;;;;;;5095439;28;20480;-86
2023/09/15 05:51:03;;;;;;;2.80;1.27;;;;;;;;;;5095490;28;20769;-84
2023/09/15 05:53:30;;;;;;;3.57;1.30;;;;;;;;;;5094224;28;20475;-85
2023/09/15 05:55:57;;;;;;;5.07;1.60;;;;;;;;;;5095213;28;20410;-75
2023/09/15 05:58:23;;;;;;;4.70;2.10;;;;;;;;;;5095320;28;20426;-86
2023/09/15 06:00:54;;;;;;;3.50;0.90;;;;;;;;;;5095475;28;20501;-78
2023/09/15 06:03:20;;;;;;;4.17;2.10;;;;;;;;;;5095341;28;20467;-86
2023/09/15 06:05:46;;;;;;;4.73;2.17;;;;;;;;;;5094283;28;20464;-85
2023/09/15 06:08:12;;;;;;;3.30;1.40;;;;;;;;;;5093838;28;20481;-76
2023/09/15 06:10:39;;;;;;;4.60;1.40;;;;;;;;;;5094871;28;20177;-85
2023/09/15 06:13:05;;;;;;;2.97;1.27;;;;;;;;;;5094727;28;20411;-76
2023/09/15 06:15:31;;;;;;;3.17;1.30;;;;;;;;;;5095418;28;20417;-91
2023/09/15 06:17:57;;;;;;;3.10;1.50;;;;;;;;;;5095244;28;20415;-87
2023/09/15 06:20:23;;;;;;;4.40;1.90;;;;;;;;;;5094999;28;20907;-85
2023/09/15 06:22:49;;;;;;;2.40;1.67;;;;;;;;;;5094904;28;20912;-85
2023/09/15 06:25:15;;;;;;;4.20;1.27;;;;;;;;;;5094818;28;20415;-76
2023/09/15 06:27:41;;;;;;;6.47;1.27;;;;;;;;;;5094712;28;20467;-85
2023/09/15 06:30:07;;;;;;;4.93;1.37;;;;;;;;;;5094279;28;20512;-76
2023/09/15 06:32:33;;;;;;;3.30;1.70;;;;;;;;;;5094717;28;20173;-86
2023/09/15 06:34:59;;;;;;;1.80;1.10;;;;;;;;;;5094776;28;20409;-85
2023/09/15 06:37:34;;;;;;;2.37;1.30;;;;;;;;;;5094823;28;20174;-77
2023/09/15 06:40:00;;;;;;;2.60;1.13;;;;;;;;;;5094705;28;20171;-86
2023/09/15 06:42:26;;;;;;;5.20;2.13;;;;;;;;;;5095304;28;20412;-87
2023/09/15 06:44:52;;;;;;;1.50;1.30;;;;;;;;;;5093459;28;20421;-86
2023/09/15 06:47:18;;;;;;;5.17;2.73;;;;;;;;;;5093933;28;20420;-79
2023/09/15 06:49:44;;;;;;;1.83;1.23;;;;;;;;;;5094034;28;20430;-78
2023/09/15 06:52:09;;;;;;;3.77;1.30;;;;;;;;;;5094160;28;20479;-76
2023/09/15 06:54:35;;;;;;;2.40;1.90;;;;;;;;;;5094218;28;20168;-82
2023/09/15 06:57:02;;;;;;;2.93;1.63;;;;;;;;;;5094099;28;20623;-83
2023/09/15 06:59:28;;;;;;;2.50;1.13;;;;;;;;;;5094050;28;20169;-82
2023/09/15 07:01:54;;;;;;;2.23;1.10;;;;;;;;;;5093582;28;20461;-80
2023/09/15 07:04:20;;;;;;;2.70;1.30;;;;;;;;;;5093975;28;20824;-78
2023/09/15 07:06:46;;;;;;;2.00;1.47;;;;;;;;;;5093941;28;20406;-80
2023/09/15 07:09:12;;;;;;;2.00;1.07;;;;;;;;;;5093700;28;20780;-80
2023/09/15 07:11:38;;;;;;;4.80;1.40;;;;;;;;;;5093684;28;20170;-80
2023/09/15 07:14:04;;;;;;;2.40;1.33;;;;;;;;;;5093227;28;20424;-82
2023/09/15 07:16:30;;;;;;;2.20;1.57;;;;;;;;;;5093387;28;20976;-78
2023/09/15 07:18:56;;;;;;;4.27;1.50;;;;;;;;;;5091375;28;20512;-78
2023/09/15 07:21:22;;;;;;;2.13;1.33;;;;;;;;;;5092673;28;20209;-79
2023/09/15 07:23:48;;;;;;;3.70;1.10;;;;;;;;;;5093559;28;20174;-84
2023/09/15 07:26:14;;;;;;;2.00;1.17;;;;;;;;;;5093725;28;20412;-78
2023/09/15 07:28:43;;;;;;;4.07;1.60;;;;;;;;;;5093521;28;20690;-87
2023/09/15 07:31:10;;;;;;;2.50;1.07;;;;;;;;;;5093320;28;20404;-78
2023/09/15 07:33:36;;;;;;;2.67;1.47;;;;;;;;;;5093114;28;20414;-77
2023/09/15 07:36:03;;;;;;;4.10;1.20;;;;;;;;;;5093362;28;20444;-80
2023/09/15 07:38:29;;;;;;;2.40;1.30;;;;;;;;;;5093438;28;20178;-79
2023/09/15 07:40:56;;;;;;;1.90;1.33;;;;;;;;;;5093428;28;20455;-81
2023/09/15 07:43:22;;;;;;;3.20;1.77;;;;;;;;;;5093013;28;20459;-85
2023/09/15 07:45:48;;;;;;;2.40;1.60;;;;;;;;;;5092430;28;20415;-86
2023/09/15 07:48:14;;;;;;;2.67;1.47;;;;;;;;;;5092881;28;20474;-93
2023/09/15 07:50:40;;;;;;;3.10;1.73;;;;;;;;;;5093029;28;20429;-90
2023/09/15 07:53:06;;;;;;;2.00;1.13;;;;;;;;;;5092258;28;20406;-91
2023/09/15 07:55:32;;;;;;;2.40;1.50;;;;;;;;;;5093297;28;20168;-85
2023/09/15 07:57:58;;;;;;;2.27;1.27;;;;;;;;;;5093337;28;20175;-86
2023/09/15 08:00:24;;;;;;;3.33;1.70;;;;;;;;;;5092853;28;20633;-89
2023/09/15 08:02:53;;;;;;;2.27;1.40;;;;;;;;;;5093163;28;20696;-86
2023/09/15 08:05:19;;;;;;;3.50;1.80;;;;;;;;;;5093163;28;20406;-85
2023/09/15 08:07:46;;;;;;;1.80;1.13;;;;;;;;;;5093016;28;20853;-86
2023/09/15 08:10:13;;;;;;;2.77;1.60;;;;;;;;;;5093105;28;20419;-84
2023/09/15 08:12:39;;;;;;;2.03;0.93;;;;;;;;;;5093150;28;20407;-85
2023/09/15 08:15:05;;;;;;;3.03;1.57;;;;;;;;;;5091805;28;21041;-82
2023/09/15 08:17:31;;;;;;;2.00;1.00;;;;;;;;;;5092951;28;20202;-77
2023/09/15 08:19:57;;;;;;;2.83;1.30;;;;;;;;;;5092984;28;20417;-79
2023/09/15 08:22:25;;;;;;;1.97;0.80;;;;;;;;;;5093060;28;20485;-83
2023/09/15 08:24:51;;;;;;;2.90;1.17;;;;;;;;;;5092962;28;20420;-79
2023/09/15 08:27:17;;;;;;;5.70;1.20;;;;;;;;;;5092964;28;20751;-88
2023/09/15 08:29:43;;;;;;;2.63;2.00;;;;;;;;;;5092840;28;20229;-80
2023/09/15 08:32:09;;;;;;;2.20;1.37;;;;;;;;;;5096635;28;20413;-81
2023/09/15 08:34:35;;;;;;;4.43;1.50;;;;;;;;;;5096952;28;20282;-84
2023/09/15 08:37:01;;;;;;;2.00;1.40;;;;;;;;;;5097008;28;20916;-79
2023/09/15 08:39:27;;;;;;;3.00;1.37;;;;;;;;;;5096959;28;20263;-80
2023/09/15 08:42:16;;;;;;;2.30;1.40;;;;;;;;;;5095672;28;20429;-83
2023/09/15 08:44:43;;;;;;;3.43;1.10;;;;;;;;;;5093427;28;20188;-78
2023/09/15 08:47:09;;;;;;;1.67;1.20;;;;;;;;;;5096712;28;20417;-77
2023/09/15 08:49:36;;;;;;;1.97;1.67;;;;;;;;;;5095440;28;20431;-78
2023/09/15 08:52:04;;;;;;;5.97;2.60;;;;;;;;;;5096732;28;20918;-79
2023/09/15 08:54:30;;;;;;;2.40;1.80;;;;;;;;;;5096651;28;20429;-78
2023/09/15 08:56:56;;;;;;;2.10;1.20;;;;;;;;;;5096568;28;20414;-78
2023/09/15 08:59:23;;;;;;;2.33;1.00;;;;;;;;;;5096582;28;20444;-78
2023/09/15 09:01:49;;;;;;;2.10;1.17;;;;;;;;;;5095998;28;20785;-79
2023/09/15 09:04:15;;;;;;;1.37;1.07;;;;;;;;;;5096380;28;20513;-81
2023/09/15 09:06:42;;;;;;;2.80;1.47;;;;;;;;;;5096359;28;20572;-83
2023/09/15 09:09:09;;;;;;;1.97;1.57;;;;;;;;;;5096271;28;20211;-77
2023/09/15 09:11:35;;;;;;;2.70;1.63;;;;;;;;;;5096356;28;20463;-79
2023/09/15 09:14:01;;;;;;;3.43;1.50;;;;;;;;;;5096335;28;20415;-80
2023/09/15 09:16:28;;;;;;;2.10;1.27;;;;;;;;;;5095673;28;20203;-75
2023/09/15 09:18:56;;;;;;;2.47;1.17;;;;;;;;;;5095991;28;20837;-76
2023/09/15 09:21:23;;;;;;;3.13;1.57;;;;;;;;;;5095843;28;20482;-76
2023/09/15 09:23:49;;;;;;;3.00;1.40;;;;;;;;;;5096138;28;20479;-83
2023/09/15 09:26:15;;;;;;;2.40;1.07;;;;;;;;;;5096060;28;21119;-75
2023/09/15 09:28:41;;;;;;;2.50;1.00;;;;;;;;;;5095956;28;21028;-80
2023/09/15 09:31:09;;;;;;;5.90;1.80;;;;;;;;;;5095596;28;20172;-78
2023/09/15 09:33:36;;;;;;;4.00;1.30;;;;;;;;;;5095822;28;20422;-76
2023/09/15 09:36:28;;;;;;;2.50;1.30;;;;;;;;;;5095935;28;20413;-76
2023/09/15 09:38:55;;;;;;;2.83;1.20;;;;;;;;;;5094645;28;20426;-77
2023/09/15 09:41:24;;;;;;;2.00;1.07;;;;;;;;;;5095767;28;20442;-76
2023/09/15 09:43:50;;;;;;;2.83;1.40;;;;;;;;;;5095042;28;20475;-81
2023/09/15 09:46:17;;;;;;;3.73;1.50;;;;;;;;;;5095346;28;20417;-77
2023/09/15 09:48:45;;;;;;;4.90;2.23;;;;;;;;;;5095433;28;20473;-75
2023/09/15 09:51:13;;;;;;;2.70;1.10;;;;;;;;;;5095591;28;20974;-76
2023/09/15 09:53:39;;;;;;;4.07;2.37;;;;;;;;;;5095471;28;20403;-76
2023/09/15 09:56:05;;;;;;;2.80;1.40;;;;;;;;;;5095429;28;20422;-84
2023/09/15 09:58:32;;;;;;;2.40;1.27;;;;;;;;;;5095511;28;20233;-77
2023/09/15 10:00:59;;;;;;;3.70;1.37;;;;;;;;;;5094965;28;20417;-77
2023/09/15 10:03:25;;;;;;;5.13;1.93;;;;;;;;;;5095208;28;20441;-78
2023/09/15 10:05:52;;;;;;;5.27;1.37;;;;;;;;;;5095315;28;20410;-75
2023/09/15 10:08:18;;;;;;;4.93;1.47;;;;;;;;;;5095120;28;20453;-76
2023/09/15 10:10:44;;;;;;;4.30;1.60;;;;;;;;;;5095191;28;20422;-75
2023/09/15 10:13:11;;;;;;;5.37;1.50;;;;;;;;;;5095066;28;20768;-76
2023/09/15 10:15:40;;;;;;;2.40;1.40;;;;;;;;;;5094752;28;20419;-76
2023/09/15 10:18:07;;;;;;;2.27;1.37;;;;;;;;;;5094974;28;20449;-79
2023/09/15 10:20:33;;;;;;;4.03;1.40;;;;;;;;;;5094941;28;20910;-75
2023/09/15 10:22:59;;;;;;;4.70;1.97;;;;;;;;;;5094902;28;20437;-74
2023/09/15 10:25:25;;;;;;;4.13;2.00;;;;;;;;;;5094859;28;20407;-78
2023/09/15 10:27:51;;;;;;;2.83;1.83;;;;;;;;;;5094726;28;20824;-83
2023/09/15 10:30:17;;;;;;;3.03;1.67;;;;;;;;;;5093187;28;20259;-84
2023/09/15 10:32:43;;;;;;;2.50;1.60;;;;;;;;;;5094708;28;20426;-77
2023/09/15 10:35:11;;;;;;;1.67;1.50;;;;;;;;;;5094696;28;20203;-77
2023/09/15 10:37:43;;;;;;;5.33;1.20;;;;;;;;;;5094648;28;20411;-77
2023/09/15 10:40:13;;;;;;;4.50;2.23;;;;;;;;;;5094621;28;20468;-77
2023/09/15 10:42:49;;;;;;;3.07;1.63;;;;;;;;;;5094508;28;20418;-79
2023/09/15 10:45:15;;;;;;;2.60;1.63;;;;;;;;;;5094135;28;20409;-77
2023/09/15 10:47:42;;;;;;;1.53;1.23;;;;;;;;;;5094357;28;20476;-78
2023/09/15 10:50:09;;;;;;;4.93;1.70;;;;;;;;;;5094335;28;20406;-78
2023/09/15 10:52:38;;;;;;;3.30;1.73;;;;;;;;;;5094371;28;20501;-77
2023/09/15 10:55:04;;;;;;;3.60;1.70;;;;;;;;;;5093303;28;20467;-78
2023/09/15 10:57:34;;;;;;;3.20;2.17;;;;;;;;;;5094304;28;20402;-77
2023/09/15 11:00:00;;;;;;;3.07;1.50;;;;;;;;;;5092649;28;20495;-77
2023/09/15 11:02:26;;;;;;;1.93;1.40;;;;;;;;;;5093989;28;21050;-78
2023/09/15 11:04:52;;;;;;;2.10;1.43;;;;;;;;;;5094124;28;20446;-77
2023/09/15 11:07:18;;;;;;;1.83;1.27;;;;;;;;;;5093990;28;20453;-75
2023/09/15 11:09:44;;;;;;;2.47;1.33;;;;;;;;;;5094080;28;20441;-76
2023/09/15 11:12:13;;;;;;;3.40;1.60;;;;;;;;;;5094094;28;20886;-77
2023/09/15 11:14:39;;;;;;;1.97;1.30;;;;;;;;;;5093690;28;20410;-76
2023/09/15 11:17:05;;;;;;;3.50;1.70;;;;;;;;;;5092615;28;20949;-78
2023/09/15 11:19:33;;;;;;;4.23;1.20;;;;;;;;;;5093889;28;20417;-76
2023/09/15 11:22:03;;;;;;;2.50;1.80;;;;;;;;;;5093817;28;20499;-81
2023/09/15 11:24:29;;;;;;;2.83;1.70;;;;;;;;;;5093639;28;20406;-84
2023/09/15 11:26:55;;;;;;;3.43;1.37;;;;;;;;;;5093691;28;20406;-78
2023/09/15 11:29:25;;;;;;;2.13;1.57;;;;;;;;;;5093319;28;20208;-83
2023/09/15 11:31:51;;;;;;;2.30;1.50;;;;;;;;;;5093640;28;20249;-78
2023/09/15 11:34:17;;;;;;;2.53;1.13;;;;;;;;;;5093623;28;20395;-80
2023/09/15 11:36:44;;;;;;;1.90;1.20;;;;;;;;;;5093478;28;20766;-82
2023/09/15 11:39:15;;;;;;;2.87;1.63;;;;;;;;;;5093528;28;20410;-79
2023/09/15 11:41:53;;;;;;;3.30;1.53;;;;;;;;;;5093528;28;20402;-82
2023/09/15 11:44:19;;;;;;;2.43;1.00;;;;;;;;;;5093025;28;20410;-84
2023/09/15 11:46:46;;;;;;;4.67;1.23;;;;;;;;;;5093412;28;20398;-79
2023/09/15 11:49:12;;;;;;;3.47;1.50;;;;;;;;;;5093218;28;20893;-79
2023/09/15 11:51:38;;;;;;;3.23;1.40;;;;;;;;;;5093398;28;20479;-77
2023/09/15 11:54:06;;;;;;;2.60;1.60;;;;;;;;;;5093253;28;20414;-78
2023/09/15 11:56:32;;;;;;;3.00;1.13;;;;;;;;;;5093344;28;20406;-78
2023/09/15 11:58:58;;;;;;;3.10;1.70;;;;;;;;;;5093285;28;20423;-79
2023/09/15 12:01:24;;;;;;;5.20;1.57;;;;;;;;;;5092650;28;20409;-77
2023/09/15 12:03:51;;;;;;;2.50;1.00;;;;;;;;;;5093204;28;20414;-78
2023/09/15 12:06:17;;;;;;;2.03;1.33;;;;;;;;;;5092733;28;20173;-79
2023/09/15 12:08:45;;;;;;;3.07;1.80;;;;;;;;;;5093097;28;20462;-78
2023/09/15 12:11:11;;;;;;;3.37;1.47;;;;;;;;;;5093086;28;20882;-76
2023/09/15 12:13:37;;;;;;;2.63;1.10;;;;;;;;;;5093012;28;20450;-76
2023/09/15 12:16:04;;;;;;;3.10;1.57;;;;;;;;;;5092736;28;20402;-79
2023/09/15 12:18:34;;;;;;;2.30;1.13;;;;;;;;;;5093048;28;20464;-77
2023/09/15 12:21:00;;;;;;;3.07;1.43;;;;;;;;;;5093048;28;20403;-79
2023/09/15 12:23:28;;;;;;;1.83;1.30;;;;;;;;;;5092961;28;20403;-80
2023/09/15 12:25:54;;;;;;;3.10;1.50;;;;;;;;;;5092920;28;20169;-80
2023/09/15 12:28:20;;;;;;;3.67;1.37;;;;;;;;;;5092844;28;20476;-77
2023/09/15 12:30:48;;;;;;;4.70;1.67;;;;;;;;;;5092601;28;20168;-81
2023/09/15 12:33:18;;;;;;;2.13;1.07;;;;;;;;;;5092995;28;20527;-79
2023/09/15 12:35:47;;;;;;;3.43;1.57;;;;;;;;;;5091541;28;20423;-83
2023/09/15 12:38:15;;;;;;;1.53;1.03;;;;;;;;;;5092839;28;20497;-80
2023/09/15 12:40:41;;;;;;;1.93;1.00;;;;;;;;;;5092869;28;20410;-79
2023/09/15 12:43:07;;;;;;;1.90;1.17;;;;;;;;;;5092873;28;20415;-80
2023/09/15 12:45:33;;;;;;;2.37;1.40;;;;;;;;;;5091170;28;20199;-81
2023/09/15 12:48:00;;;;;;;2.40;1.30;;;;;;;;;;5092634;28;20211;-78
2023/09/15 12:50:26;;;;;;;3.00;1.40;;;;;;;;;;5092745;28;20517;-77
2023/09/15 12:52:52;;;;;;;3.20;1.10;;;;;;;;;;5092742;28;20942;-77
2023/09/15 12:55:18;;;;;;;3.03;1.57;;;;;;;;;;5094240;28;20179;-85
2023/09/15 12:57:44;;;;;;;1.73;1.07;;;;;;;;;;5092714;28;20759;-87
2023/09/15 13:00:10;;;;;;;4.50;2.10;;;;;;;;;;5092274;28;20407;-84
2023/09/15 13:02:36;;;;;;;3.43;1.47;;;;;;;;;;5092505;28;20216;-86
2023/09/15 13:05:04;;;;;;;3.20;1.07;;;;;;;;;;5091339;28;20413;-84
2023/09/15 13:07:30;;;;;;;3.67;1.90;;;;;;;;;;5092513;28;20410;-83
2023/09/15 13:09:56;;;;;;;4.90;1.30;;;;;;;;;;5091295;28;20474;-86
2023/09/15 13:12:22;;;;;;;2.20;1.23;;;;;;;;;;5092614;28;20172;-85
2023/09/15 13:14:48;;;;;;;2.83;1.30;;;;;;;;;;5092206;28;20176;-86
2023/09/15 13:17:14;;;;;;;2.63;1.27;;;;;;;;;;5092947;28;20183;-84
2023/09/15 13:19:40;;;;;;;2.10;0.73;;;;;;;;;;5094890;28;20429;-86
2023/09/15 13:22:06;;;;;;;2.20;1.10;;;;;;;;;;5096154;28;20177;-82
2023/09/15 13:24:32;;;;;;;3.73;1.00;;;;;;;;;;5096104;28;20180;-81
2023/09/15 13:26:59;;;;;;;2.00;1.40;;;;;;;;;;5096080;28;20465;-83
2023/09/15 13:29:27;;;;;;;3.00;1.27;;;;;;;;;;5095564;28;20225;-82
2023/09/15 13:31:53;;;;;;;3.13;1.27;;;;;;;;;;5096014;28;20769;-85
2023/09/15 13:34:19;;;;;;;2.17;1.10;;;;;;;;;;5095932;28;20844;-84
2023/09/15 13:36:44;;;;;;;5.80;1.47;;;;;;;;;;5095858;28;20438;-87
2023/09/15 13:39:11;;;;;;;2.57;1.53;;;;;;;;;;5095932;28;20172;-85
2023/09/15 13:41:37;;;;;;;2.43;1.30;;;;;;;;;;5095764;28;20182;-83
2023/09/15 13:44:03;;;;;;;2.50;1.53;;;;;;;;;;5094098;28;20410;-81
2023/09/15 13:46:29;;;;;;;3.07;1.50;;;;;;;;;;5095635;28;20567;-83
2023/09/15 13:48:55;;;;;;;2.20;1.50;;;;;;;;;;5095566;28;20472;-86
2023/09/15 13:51:21;;;;;;;2.40;1.40;;;;;;;;;;5094336;28;20760;-81
2023/09/15 13:53:47;;;;;;;2.53;1.63;;;;;;;;;;5094347;28;20252;-84
2023/09/15 13:56:13;;;;;;;2.57;1.30;;;;;;;;;;5095515;28;20892;-83
2023/09/15 13:58:39;;;;;;;3.27;1.30;;;;;;;;;;5094223;28;20270;-83
2023/09/15 14:01:05;;;;;;;3.07;1.67;;;;;;;;;;5094964;28;20204;-83
2023/09/15 14:03:31;;;;;;;2.90;1.33;;;;;;;;;;5095167;28;20468;-83
2023/09/15 14:05:57;;;;;;;2.00;1.27;;;;;;;;;;5095338;28;20436;-83
2023/09/15 14:08:24;;;;;;;2.57;1.67;;;;;;;;;;5093964;28;20961;-84
2023/09/15 14:10:50;;;;;;;4.23;1.60;;;;;;;;;;5095249;28;20408;-87
2023/09/15 14:13:16;;;;;;;3.43;1.63;;;;;;;;;;5095190;28;20417;-85
2023/09/15 14:15:43;;;;;;;3.57;2.00;;;;;;;;;;5094730;28;20963;-85
2023/09/15 14:18:09;;;;;;;3.03;2.13;;;;;;;;;;5095076;28;20810;-85
2023/09/15 14:20:35;;;;;;;2.50;2.00;;;;;;;;;;5094941;28;20417;-78
2023/09/15 14:23:01;;;;;;;2.77;1.57;;;;;;;;;;5095011;28;20424;-79
2023/09/15 14:25:26;;;;;;;2.60;1.33;;;;;;;;;;5094966;28;20448;-78
2023/09/15 14:27:52;;;;;;;4.60;1.63;;;;;;;;;;5094649;28;20207;-77
2023/09/15 14:30:18;;;;;;;3.13;1.30;;;;;;;;;;5094506;28;20528;-77
2023/09/15 14:32:44;;;;;;;2.50;1.83;;;;;;;;;;5094785;28;20678;-77
2023/09/15 14:35:11;;;;;;;4.60;1.80;;;;;;;;;;5094771;28;20252;-84
2023/09/15 14:37:37;;;;;;;2.77;2.10;;;;;;;;;;5094688;28;20567;-76
2023/09/15 14:40:03;;;;;;;2.67;1.43;;;;;;;;;;5094657;28;20406;-83